»·PEaware :: N313KP KOSH-KAPA

N313KP :: KOSH-KAPA

FLIGHT INFORMATION

Flight Status: Arrived
Operator: Privately registered:
United States
More flights under this callsign
Pilot: Erik A. (17503)
Aircraft: BEECH AIRCRAFT BONANZA
(BE35)
More flights by this aircraft type
Origin: KOSH Wittman Regl
United States
Destination: KAPA Centennial
United States
More flights between these airports :: More routes between these airports
Route:
File this flight plan on PilotEdge
Remarks: Post-SimVenture return. Two year memorial flight for my father, KP.
Altitude:
(Current/Filed)
6,500ft
Speed:
(Current/Filed)
160kts
Departed: 27-Jul-20 01:10 PM
Arrived: 27-Jul-20 05:46 PM
Distance/Time
Traveled:
774nm/4:36
Distance/Time
To Go:
Arrived

Flight Plot

Page will automatically refresh every two minutes.

Flight plan parsing failed; only flown route is shown


Map Options




Map Legend


Flown Route
Filed Route
Departure Airport
Arrival Airport
Navaid (VOR, NDB)
Fix

Horizontal Profiles

Position Reports

Time Latitude Longitude Heading Altitude Ground
Speed
27-Jul-20 12:59 43.967454 -88.557635 87 811ft 0kts
27-Jul-20 13:00 43.967454 -88.557632 87 811ft 0kts
27-Jul-20 13:01 43.967454 -88.557628 87 811ft 0kts
27-Jul-20 13:02 43.967454 -88.557625 87 811ft 0kts
27-Jul-20 13:03 43.967454 -88.557621 87 811ft 0kts
27-Jul-20 13:04 43.967454 -88.557618 87 811ft 0kts
27-Jul-20 13:04 43.967454 -88.557615 87 811ft 0kts
27-Jul-20 13:06 43.967454 -88.557610 87 811ft 0kts
27-Jul-20 13:07 43.967455 -88.557604 87 811ft 0kts
27-Jul-20 13:07 43.967455 -88.557598 87 811ft 0kts
27-Jul-20 13:09 43.967823 -88.556672 358 811ft 13kts
27-Jul-20 13:09 43.980039 -88.550021 88 1129ft 97kts
27-Jul-20 13:10 43.950085 -88.523661 150 1318ft 157kts
27-Jul-20 13:11 43.910895 -88.491820 146 1500ft 165kts
27-Jul-20 13:12 43.880640 -88.483301 299 2245ft 105kts
27-Jul-20 13:13 43.901310 -88.505788 329 3322ft 100kts
27-Jul-20 13:14 43.931314 -88.520567 345 3892ft 126kts
27-Jul-20 13:15 43.961725 -88.537006 286 4478ft 135kts
27-Jul-20 13:16 43.971867 -88.591933 286 4500ft 150kts
27-Jul-20 13:17 43.976923 -88.649238 260 4496ft 157kts
27-Jul-20 13:18 43.968004 -88.708526 257 4498ft 157kts
27-Jul-20 13:19 43.954603 -88.766651 256 4497ft 159kts
27-Jul-20 13:20 43.941170 -88.825166 255 4502ft 160kts
27-Jul-20 13:21 43.927709 -88.884302 259 4505ft 161kts
27-Jul-20 13:22 43.915128 -88.944066 257 4509ft 163kts
27-Jul-20 13:23 43.903257 -89.004065 259 4510ft 159kts
27-Jul-20 13:24 43.892169 -89.063539 258 4519ft 163kts
27-Jul-20 13:25 43.880244 -89.123204 258 4515ft 156kts
27-Jul-20 13:26 43.868844 -89.180834 258 4517ft 155kts
27-Jul-20 13:27 43.857675 -89.238516 261 4518ft 154kts
27-Jul-20 13:28 43.846008 -89.295875 260 4515ft 154kts
27-Jul-20 13:29 43.834840 -89.353173 259 4520ft 154kts
27-Jul-20 13:30 43.823776 -89.410497 259 4522ft 154kts
27-Jul-20 13:31 43.812349 -89.467941 257 4526ft 154kts
27-Jul-20 13:32 43.801262 -89.525050 259 4528ft 154kts
27-Jul-20 13:33 43.790132 -89.582287 261 4530ft 153kts
27-Jul-20 13:34 43.779428 -89.639698 258 4532ft 154kts
27-Jul-20 13:35 43.767737 -89.696793 261 4540ft 156kts
27-Jul-20 13:36 43.756674 -89.756711 259 4533ft 159kts
27-Jul-20 13:37 43.745170 -89.815246 260 4537ft 156kts
27-Jul-20 13:38 43.734610 -89.873554 260 4533ft 155kts
27-Jul-20 13:39 43.724073 -89.931489 261 4540ft 156kts
27-Jul-20 13:40 43.712605 -89.989930 258 4540ft 160kts
27-Jul-20 13:41 43.701136 -90.049825 259 4537ft 165kts
27-Jul-20 13:42 43.689166 -90.110986 258 4540ft 163kts
27-Jul-20 13:43 43.678125 -90.171225 261 4542ft 159kts
27-Jul-20 13:44 43.667115 -90.230596 258 4537ft 162kts
27-Jul-20 13:45 43.656190 -90.291476 259 4539ft 166kts
27-Jul-20 13:46 43.643173 -90.352601 256 4545ft 167kts
27-Jul-20 13:47 43.630689 -90.413652 257 4549ft 163kts
27-Jul-20 13:48 43.617710 -90.474376 260 4487ft 169kts
27-Jul-20 13:49 43.604310 -90.536182 255 4478ft 167kts
27-Jul-20 13:50 43.591143 -90.596448 257 4485ft 161kts
27-Jul-20 13:51 43.579141 -90.656792 257 4495ft 169kts
27-Jul-20 13:52 43.564629 -90.717828 259 4499ft 165kts
27-Jul-20 13:53 43.551389 -90.778260 258 4503ft 164kts
27-Jul-20 13:54 43.537517 -90.837954 256 4503ft 161kts
27-Jul-20 13:55 43.523542 -90.897639 259 4505ft 168kts
27-Jul-20 13:56 43.510101 -90.958837 259 4507ft 164kts
27-Jul-20 13:57 43.497034 -91.018917 259 4502ft 163kts
27-Jul-20 13:58 43.483435 -91.079457 257 4504ft 170kts
27-Jul-20 13:59 43.470758 -91.141959 261 4504ft 171kts
27-Jul-20 14:00 43.457642 -91.203420 261 4497ft 163kts
27-Jul-20 14:01 43.444374 -91.263599 258 4506ft 169kts
27-Jul-20 14:02 43.432039 -91.325677 257 4500ft 166kts
27-Jul-20 14:03 43.419265 -91.385639 261 4503ft 161kts
27-Jul-20 14:04 43.407081 -91.445398 262 4498ft 164kts
27-Jul-20 14:05 43.395290 -91.505986 261 4501ft 161kts
27-Jul-20 14:06 43.382528 -91.566052 257 4513ft 169kts
27-Jul-20 14:07 43.370648 -91.628190 259 4515ft 169kts
27-Jul-20 14:08 43.358156 -91.689621 260 4513ft 166kts
27-Jul-20 14:09 43.345938 -91.750503 260 4513ft 165kts
27-Jul-20 14:10 43.333966 -91.810377 260 4513ft 160kts
27-Jul-20 14:11 43.322164 -91.870057 261 4519ft 167kts
27-Jul-20 14:12 43.309600 -91.931479 259 4518ft 166kts
27-Jul-20 14:13 43.298082 -91.992005 259 4517ft 160kts
27-Jul-20 14:14 43.286381 -92.051180 257 4520ft 163kts
27-Jul-20 14:15 43.272925 -92.110452 258 4520ft 164kts
27-Jul-20 14:16 43.257360 -92.169511 257 4532ft 165kts
27-Jul-20 14:17 43.242986 -92.229427 254 4539ft 168kts
27-Jul-20 14:18 43.228172 -92.289325 257 4538ft 163kts
27-Jul-20 14:19 43.213914 -92.347935 257 4543ft 162kts
27-Jul-20 14:20 43.200284 -92.407129 257 4542ft 164kts
27-Jul-20 14:21 43.185246 -92.466983 259 4544ft 169kts
27-Jul-20 14:22 43.170374 -92.528244 257 4498ft 167kts
27-Jul-20 14:23 43.156253 -92.588302 257 4498ft 166kts
27-Jul-20 14:24 43.141910 -92.648303 255 4498ft 165kts
27-Jul-20 14:25 43.127746 -92.708205 258 4500ft 169kts
27-Jul-20 14:26 43.113313 -92.769876 258 4500ft 172kts
27-Jul-20 14:27 43.098912 -92.832303 259 4503ft 175kts
27-Jul-20 14:28 43.084125 -92.894746 260 4508ft 171kts
27-Jul-20 14:29 43.069414 -92.956346 256 4508ft 168kts
27-Jul-20 14:30 43.055771 -93.017469 262 4514ft 169kts
27-Jul-20 14:31 43.043514 -93.079127 258 4515ft 166kts
27-Jul-20 14:32 43.030854 -93.139802 259 4518ft 167kts
27-Jul-20 14:33 43.018145 -93.201308 258 4520ft 169kts
27-Jul-20 14:34 43.005226 -93.262634 257 4520ft 168kts
27-Jul-20 14:35 42.992651 -93.323622 256 4519ft 167kts
27-Jul-20 14:36 42.980129 -93.384586 261 4524ft 166kts
27-Jul-20 14:37 42.968000 -93.445634 261 4523ft 166kts
27-Jul-20 14:38 42.953686 -93.506442 255 4522ft 171kts
27-Jul-20 14:39 42.938904 -93.567698 258 4520ft 168kts
27-Jul-20 14:40 42.923941 -93.628397 255 4523ft 171kts
27-Jul-20 14:41 42.908866 -93.690207 255 4523ft 175kts
27-Jul-20 14:42 42.893263 -93.752123 260 4522ft 170kts
27-Jul-20 14:43 42.878048 -93.814417 257 4529ft 179kts
27-Jul-20 14:45 42.863752 -93.877796 254 4515ft 174kts
27-Jul-20 14:46 42.847364 -93.939179 257 4520ft 172kts
27-Jul-20 14:47 42.833309 -94.001542 254 4521ft 175kts
27-Jul-20 14:48 42.818035 -94.064383 258 4523ft 175kts
27-Jul-20 14:49 42.802958 -94.126887 261 4524ft 171kts
27-Jul-20 14:50 42.788816 -94.189417 258 4523ft 176kts
27-Jul-20 14:51 42.773863 -94.252541 258 4525ft 174kts
27-Jul-20 14:52 42.759034 -94.315566 258 4531ft 177kts
27-Jul-20 14:53 42.743905 -94.378913 256 4529ft 176kts
27-Jul-20 14:54 42.728847 -94.441414 259 4529ft 172kts
27-Jul-20 14:55 42.714049 -94.503961 256 4529ft 176kts
27-Jul-20 14:56 42.698763 -94.566595 255 4526ft 174kts
27-Jul-20 14:57 42.683097 -94.628363 257 4525ft 173kts
27-Jul-20 14:58 42.667177 -94.691291 254 4529ft 181kts
27-Jul-20 14:59 42.650798 -94.754486 257 4526ft 174kts
27-Jul-20 15:00 42.634220 -94.816886 256 4521ft 177kts
27-Jul-20 15:00 42.621255 -94.869253 257 4522ft 174kts
27-Jul-20 15:02 42.602350 -94.942548 259 4521ft 183kts
27-Jul-20 15:03 42.587427 -95.007469 256 4518ft 178kts
27-Jul-20 15:03 42.574181 -95.060032 255 4517ft 175kts
27-Jul-20 15:05 42.556243 -95.133222 254 4520ft 175kts
27-Jul-20 15:05 42.543241 -95.185219 257 4522ft 174kts
27-Jul-20 15:06 42.528440 -95.248687 256 4515ft 179kts
27-Jul-20 15:07 42.512855 -95.312386 256 4519ft 179kts
27-Jul-20 15:08 42.497687 -95.376676 256 4524ft 180kts
27-Jul-20 15:09 42.483025 -95.441576 255 4521ft 182kts
27-Jul-20 15:10 42.467193 -95.506355 258 4522ft 178kts
27-Jul-20 15:11 42.452330 -95.570508 256 4525ft 180kts
27-Jul-20 15:12 42.436424 -95.634942 260 4532ft 178kts
27-Jul-20 15:13 42.420360 -95.698850 253 4530ft 180kts
27-Jul-20 15:14 42.402289 -95.762463 253 4528ft 184kts
27-Jul-20 15:15 42.384341 -95.826788 253 4530ft 181kts
27-Jul-20 15:16 42.365999 -95.890569 252 4527ft 185kts
27-Jul-20 15:17 42.348144 -95.955820 252 4527ft 183kts
27-Jul-20 15:18 42.329714 -96.020219 254 4527ft 186kts
27-Jul-20 15:19 42.311574 -96.085215 253 4529ft 185kts
27-Jul-20 15:20 42.294411 -96.150746 254 4528ft 186kts
27-Jul-20 15:21 42.276136 -96.216476 252 4530ft 190kts
27-Jul-20 15:22 42.258122 -96.282044 256 4530ft 181kts
27-Jul-20 15:23 42.240198 -96.346155 252 4529ft 184kts
27-Jul-20 15:24 42.223260 -96.411511 253 4528ft 187kts
27-Jul-20 15:25 42.205708 -96.475769 253 4857ft 181kts
27-Jul-20 15:26 42.188377 -96.539480 255 5109ft 180kts
27-Jul-20 15:27 42.170918 -96.603011 252 5277ft 181kts
27-Jul-20 15:28 42.153979 -96.666735 255 5338ft 180kts
27-Jul-20 15:29 42.137564 -96.726210 252 6022ft 164kts
27-Jul-20 15:30 42.121418 -96.784237 254 6519ft 176kts
27-Jul-20 15:31 42.104154 -96.848509 253 6533ft 182kts
27-Jul-20 15:32 42.087572 -96.912758 254 6535ft 182kts
27-Jul-20 15:33 42.070511 -96.976550 253 6535ft 179kts
27-Jul-20 15:34 42.054631 -97.040606 253 6541ft 183kts
27-Jul-20 15:35 42.038496 -97.105655 255 6538ft 183kts
27-Jul-20 15:36 42.022941 -97.170869 254 6539ft 184kts
27-Jul-20 15:37 42.007169 -97.236357 253 6539ft 186kts
27-Jul-20 15:38 41.991739 -97.302074 253 6535ft 182kts
27-Jul-20 15:39 41.977405 -97.367275 253 6539ft 181kts
27-Jul-20 15:40 41.963449 -97.432979 254 6541ft 188kts
27-Jul-20 15:41 41.949228 -97.499800 254 6533ft 182kts
27-Jul-20 15:42 41.935756 -97.565160 255 6539ft 180kts
27-Jul-20 15:43 41.922150 -97.629865 255 6542ft 180kts
27-Jul-20 15:44 41.908816 -97.694540 255 6548ft 179kts
27-Jul-20 15:45 41.892545 -97.758223 247 6555ft 182kts
27-Jul-20 15:46 41.873540 -97.821536 247 6559ft 188kts
27-Jul-20 15:47 41.854275 -97.885853 247 6561ft 181kts
27-Jul-20 15:48 41.834992 -97.948258 247 6566ft 184kts
27-Jul-20 15:49 41.814702 -98.010938 244 6561ft 180kts
27-Jul-20 15:50 41.794536 -98.072640 246 6569ft 181kts
27-Jul-20 15:51 41.774717 -98.134466 245 6567ft 181kts
27-Jul-20 15:52 41.754604 -98.196162 246 6568ft 179kts
27-Jul-20 15:53 41.734714 -98.257965 245 6572ft 184kts
27-Jul-20 15:54 41.714442 -98.321010 247 6566ft 185kts
27-Jul-20 15:55 41.694165 -98.383815 246 6571ft 186kts
27-Jul-20 15:56 41.673355 -98.447296 245 6564ft 183kts
27-Jul-20 15:57 41.654547 -98.509902 246 6570ft 180kts
27-Jul-20 15:58 41.634585 -98.572552 247 6573ft 190kts
27-Jul-20 15:59 41.614314 -98.637338 247 6569ft 189kts
27-Jul-20 16:00 41.593806 -98.700689 246 6568ft 184kts
27-Jul-20 16:01 41.575186 -98.764004 246 6569ft 182kts
27-Jul-20 16:02 41.555097 -98.825764 246 6567ft 181kts
27-Jul-20 16:03 41.535795 -98.887752 244 6570ft 181kts
27-Jul-20 16:04 41.515263 -98.949540 245 6561ft 185kts
27-Jul-20 16:05 41.494915 -99.013326 245 6561ft 190kts
27-Jul-20 16:06 41.474647 -99.077830 245 6562ft 191kts
27-Jul-20 16:07 41.454745 -99.142394 244 6564ft 184kts
27-Jul-20 16:08 41.435107 -99.205593 246 6573ft 190kts
27-Jul-20 16:09 41.414915 -99.270322 245 6572ft 190kts
27-Jul-20 16:10 41.395640 -99.335541 248 6584ft 192kts
27-Jul-20 16:11 41.376607 -99.400531 246 6586ft 186kts
27-Jul-20 16:12 41.357741 -99.464132 244 6587ft 185kts
27-Jul-20 16:13 41.338846 -99.527499 246 6587ft 181kts
27-Jul-20 16:14 41.321414 -99.590219 246 6587ft 178kts
27-Jul-20 16:15 41.304707 -99.651447 246 6590ft 174kts
27-Jul-20 16:16 41.287490 -99.712329 247 6591ft 182kts
27-Jul-20 16:17 41.270848 -99.776016 246 6586ft 178kts
27-Jul-20 16:18 41.253683 -99.836980 246 6587ft 174kts
27-Jul-20 16:19 41.237286 -99.898096 247 6592ft 181kts
27-Jul-20 16:20 41.219501 -99.960754 247 6588ft 181kts
27-Jul-20 16:21 41.202139 -100.022688 245 6591ft 178kts
27-Jul-20 16:22 41.183842 -100.084301 246 6593ft 183kts
27-Jul-20 16:23 41.164497 -100.147351 247 6588ft 187kts
27-Jul-20 16:24 41.145404 -100.210424 244 6589ft 182kts
27-Jul-20 16:25 41.125957 -100.271890 246 6585ft 182kts
27-Jul-20 16:26 41.106587 -100.333265 244 6592ft 180kts
27-Jul-20 16:27 41.087700 -100.394632 246 6587ft 180kts
27-Jul-20 16:28 41.069676 -100.456006 246 6586ft 179kts
27-Jul-20 16:29 41.051696 -100.517411 242 6592ft 177kts
27-Jul-20 16:30 41.031870 -100.577055 244 6587ft 175kts
27-Jul-20 16:31 41.011718 -100.636426 243 6537ft 181kts
27-Jul-20 16:32 40.990829 -100.696685 242 6502ft 180kts
27-Jul-20 16:33 40.971076 -100.752704 243 7105ft 160kts
27-Jul-20 16:34 40.952019 -100.805711 243 7565ft 159kts
27-Jul-20 16:36 40.933321 -100.859072 242 8084ft 159kts
27-Jul-20 16:37 40.914588 -100.913054 242 8496ft 171kts
27-Jul-20 16:38 40.893712 -100.972113 243 8506ft 176kts
27-Jul-20 16:39 40.872738 -101.030400 243 8509ft 180kts
27-Jul-20 16:40 40.851634 -101.090760 243 8506ft 176kts
27-Jul-20 16:41 40.831729 -101.148943 243 8506ft 173kts
27-Jul-20 16:42 40.812060 -101.207006 242 8510ft 174kts
27-Jul-20 16:43 40.792008 -101.265780 244 8512ft 178kts
27-Jul-20 16:44 40.771985 -101.325729 245 8515ft 181kts
27-Jul-20 16:45 40.752599 -101.387362 245 8510ft 177kts
27-Jul-20 16:46 40.733923 -101.447331 246 8517ft 181kts
27-Jul-20 16:47 40.715203 -101.508365 244 8512ft 182kts
27-Jul-20 16:48 40.696757 -101.570551 245 8514ft 183kts
27-Jul-20 16:49 40.678014 -101.632454 246 8511ft 177kts
27-Jul-20 16:50 40.660061 -101.692581 246 8517ft 178kts
27-Jul-20 16:51 40.642154 -101.752913 246 8520ft 175kts
27-Jul-20 16:52 40.624279 -101.813765 245 8488ft 185kts
27-Jul-20 16:52 40.608431 -101.866500 246 8479ft 185kts
27-Jul-20 16:53 40.589895 -101.928558 247 8481ft 179kts
27-Jul-20 16:55 40.568956 -102.000148 245 8489ft 185kts
27-Jul-20 16:55 40.552260 -102.051666 245 8488ft 179kts
27-Jul-20 16:56 40.533510 -102.111726 245 8495ft 179kts
27-Jul-20 16:57 40.514097 -102.172016 243 8496ft 176kts
27-Jul-20 16:58 40.494197 -102.230729 243 8500ft 175kts
27-Jul-20 16:59 40.474010 -102.289231 243 8501ft 178kts
27-Jul-20 17:00 40.453494 -102.349066 244 8503ft 181kts
27-Jul-20 17:01 40.432553 -102.409871 244 8496ft 179kts
27-Jul-20 17:02 40.412315 -102.469341 243 8502ft 184kts
27-Jul-20 17:03 40.391576 -102.530714 243 8502ft 181kts
27-Jul-20 17:04 40.370544 -102.590597 242 8507ft 183kts
27-Jul-20 17:05 40.348836 -102.651066 241 8503ft 182kts
27-Jul-20 17:06 40.326829 -102.710019 241 8506ft 176kts
27-Jul-20 17:07 40.305606 -102.768058 241 8518ft 182kts
27-Jul-20 17:08 40.283583 -102.828121 241 8515ft 178kts
27-Jul-20 17:09 40.262380 -102.886253 242 8520ft 176kts
27-Jul-20 17:10 40.241612 -102.944364 242 8523ft 178kts
27-Jul-20 17:11 40.220413 -103.002992 241 8524ft 178kts
27-Jul-20 17:12 40.198924 -103.061761 242 8531ft 183kts
27-Jul-20 17:13 40.177069 -103.121674 242 8528ft 180kts
27-Jul-20 17:14 40.155987 -103.180215 242 8524ft 177kts
27-Jul-20 17:15 40.135005 -103.238765 242 8505ft 178kts
27-Jul-20 17:16 40.113329 -103.298726 242 8499ft 182kts
27-Jul-20 17:17 40.092214 -103.358914 242 8503ft 186kts
27-Jul-20 17:18 40.070189 -103.420211 242 8501ft 188kts
27-Jul-20 17:19 40.048042 -103.480751 242 8496ft 179kts
27-Jul-20 17:20 40.027218 -103.539956 243 8499ft 183kts
27-Jul-20 17:21 40.006487 -103.600584 243 8498ft 185kts
27-Jul-20 17:22 39.985397 -103.660971 242 8497ft 180kts
27-Jul-20 17:23 39.964303 -103.720662 245 8499ft 187kts
27-Jul-20 17:24 39.944407 -103.783271 244 8504ft 189kts
27-Jul-20 17:25 39.924498 -103.845521 244 8468ft 181kts
27-Jul-20 17:26 39.904287 -103.905748 244 8474ft 187kts
27-Jul-20 17:27 39.883879 -103.967962 243 8474ft 188kts
27-Jul-20 17:28 39.863836 -104.029794 245 8472ft 180kts
27-Jul-20 17:29 39.845391 -104.090755 245 8477ft 187kts
27-Jul-20 17:30 39.826353 -104.153631 242 8245ft 192kts
27-Jul-20 17:31 39.796099 -104.209473 225 7904ft 184kts
27-Jul-20 17:32 39.759538 -104.256556 217 7655ft 181kts
27-Jul-20 17:33 39.718954 -104.294906 211 7457ft 181kts
27-Jul-20 17:34 39.678083 -104.332110 211 7376ft 178kts
27-Jul-20 17:35 39.637432 -104.367778 206 7377ft 175kts
27-Jul-20 17:36 39.596841 -104.402315 211 7339ft 178kts
27-Jul-20 17:37 39.565298 -104.447079 286 7326ft 185kts
27-Jul-20 17:38 39.584632 -104.508618 271 7427ft 177kts
27-Jul-20 17:39 39.581201 -104.571301 264 7554ft 182kts
27-Jul-20 17:40 39.576877 -104.636821 265 7551ft 182kts
27-Jul-20 17:41 39.585827 -104.699955 285 7744ft 180kts
27-Jul-20 17:42 39.595914 -104.764247 273 7692ft 182kts
27-Jul-20 17:43 39.597880 -104.828734 271 7229ft 166kts
27-Jul-20 17:44 39.583106 -104.851471 175 5950ft 79kts
27-Jul-20 17:45 39.574448 -104.850449 87 5888ft 0kts
27-Jul-20 17:46 39.574448 -104.850447 87 5888ft 0kts
27-Jul-20 17:47 39.573539 -104.849822 179 5888ft 8kts
27-Jul-20 17:48 39.571470 -104.848297 110 5888ft 11kts
27-Jul-20 17:49 39.571151 -104.847923 266 5888ft 0kts
27-Jul-20 17:50 39.571087 -104.848003 189 5888ft 0kts
27-Jul-20 17:51 39.571086 -104.848003 189 5888ft 0kts
27-Jul-20 17:52 39.571086 -104.848003 189 5888ft 0kts
27-Jul-20 17:53 39.571086 -104.848003 189 5888ft 0kts
27-Jul-20 17:54 39.571086 -104.848003 189 5888ft 0kts

Navigation Log

Ident Type
Flight plan parsing failed, navigation log unavailable